Terminal Aerodrome Forecast
Issued by NWS

Home | Current Version | Previous Version | Text Only | Print | Product List | Glossary On
Versions: 1 2 3 4 5 6 7 8 9 10 11 12 13 14
352
FTAK31 PAJN 210529
TAFAJN
TAF
PAJN 210529Z 2106/2206 12015KT P6SM -RA FEW006 BKN040 OVC060
      TEMPO 2106/2109 12015G25KT
     FM210900 10015G25KT 5SM -RA BR FEW005 SCT015 OVC030
     FM211800 12020G30KT 4SM -RA BR SCT015 OVC025 WS020/14040KT
     FM220000 12013G23KT 6SM -RA BR OVC025=

USA.gov is the U.S. government's official web portal to all federal, state and local government web resources and services.